createdAt,value
2019-03-29T00:00:53.049Z,3.86
2019-03-29T00:03:25.948Z,3.82
2019-03-29T00:05:58.730Z,3.80
2019-03-29T00:08:31.936Z,3.76
2019-03-29T00:11:04.719Z,3.72
2019-03-29T00:13:37.543Z,3.69
2019-03-29T00:16:10.392Z,3.67
2019-03-29T00:18:43.501Z,3.64
2019-03-29T00:21:16.297Z,3.61
2019-03-29T00:23:49.323Z,3.61
2019-03-29T00:26:22.166Z,3.60
2019-03-29T00:28:55.117Z,3.58
2019-03-29T00:31:27.898Z,3.55
2019-03-29T00:34:01.055Z,3.52
2019-03-29T00:36:34.379Z,3.51
2019-03-29T00:39:08.630Z,3.49
2019-03-29T00:41:41.687Z,3.46
2019-03-29T00:44:14.480Z,3.44
2019-03-29T00:46:47.404Z,3.41
2019-03-29T00:49:20.314Z,3.39
2019-03-29T00:51:53.098Z,3.35
2019-03-29T00:54:25.908Z,3.33
2019-03-29T00:56:58.686Z,3.31
2019-03-29T00:59:31.864Z,3.26
2019-03-29T01:02:04.667Z,3.22
2019-03-29T01:04:37.466Z,3.20
2019-03-29T01:07:10.436Z,3.17
2019-03-29T01:09:43.259Z,3.15
2019-03-29T01:12:16.146Z,3.14
2019-03-29T01:14:48.957Z,3.11
2019-03-29T01:17:21.828Z,3.09
2019-03-29T01:19:55.340Z,3.05
2019-03-29T01:22:28.963Z,3.00
2019-03-29T01:25:02.108Z,2.96
2019-03-29T01:27:34.915Z,2.91
2019-03-29T01:30:08.641Z,2.87
2019-03-29T01:32:41.952Z,2.83
2019-03-29T01:35:14.817Z,2.80
2019-03-29T01:37:47.549Z,2.77
2019-03-29T01:40:20.513Z,2.77
2019-03-29T01:42:53.301Z,2.72
2019-03-29T01:45:26.156Z,2.74
2019-03-29T01:47:59.033Z,2.73
2019-03-29T01:50:32.095Z,2.71
2019-03-29T01:53:04.911Z,2.70
2019-03-29T01:55:37.739Z,2.68
2019-03-29T01:58:12.813Z,2.68
2019-03-29T02:00:45.599Z,2.66
2019-03-29T02:03:18.489Z,2.64
2019-03-29T02:05:53.214Z,2.64
2019-03-29T02:08:35.739Z,2.66
2019-03-29T02:11:00.575Z,2.74
2019-03-29T02:13:33.399Z,2.77
2019-03-29T02:16:06.277Z,2.78
2019-03-29T02:18:39.866Z,2.77
2019-03-29T02:21:12.925Z,2.74
2019-03-29T02:23:45.697Z,2.72
2019-03-29T02:26:18.494Z,2.69
2019-03-29T02:28:51.829Z,2.68
2019-03-29T02:31:26.130Z,2.66
2019-03-29T02:33:59.359Z,2.65
2019-03-29T02:36:32.109Z,2.65
2019-03-29T02:39:05.264Z,2.63
2019-03-29T02:41:38.231Z,2.60
2019-03-29T02:44:11.394Z,2.56
2019-03-29T02:46:44.193Z,2.51
2019-03-29T02:49:16.966Z,2.46
2019-03-29T02:51:49.826Z,2.40
2019-03-29T02:54:22.662Z,2.39
2019-03-29T02:56:55.494Z,2.38
2019-03-29T02:59:28.270Z,2.34
2019-03-29T03:02:01.709Z,2.31
2019-03-29T03:04:34.549Z,2.27
2019-03-29T03:07:07.387Z,2.22
2019-03-29T03:09:40.191Z,2.19
2019-03-29T03:12:12.986Z,2.15
2019-03-29T03:14:45.793Z,2.14
2019-03-29T03:17:18.635Z,2.12
2019-03-29T03:19:51.797Z,2.12
2019-03-29T03:22:24.647Z,2.06
2019-03-29T03:24:57.447Z,2.05
2019-03-29T03:27:30.241Z,2.02
2019-03-29T03:30:03.527Z,1.99
2019-03-29T03:32:36.280Z,1.96
2019-03-29T03:35:10.493Z,1.94
2019-03-29T03:37:43.314Z,1.98
2019-03-29T03:40:16.959Z,2.11
2019-03-29T03:42:50.322Z,2.17
2019-03-29T03:45:23.114Z,2.19
2019-03-29T03:47:56.002Z,2.17
2019-03-29T03:50:42.478Z,2.14
2019-03-29T03:53:15.404Z,2.11
2019-03-29T03:55:48.113Z,2.07
2019-03-29T03:58:23.001Z,2.05
2019-03-29T04:00:58.214Z,2.02
2019-03-29T04:03:31.399Z,1.98
2019-03-29T04:06:04.421Z,1.93
2019-03-29T04:08:37.321Z,1.90
2019-03-29T04:11:10.162Z,1.88
2019-03-29T04:13:43.085Z,1.88
2019-03-29T04:16:15.890Z,1.92
2019-03-29T04:18:48.689Z,1.88
2019-03-29T04:21:21.483Z,1.86
2019-03-29T04:23:54.280Z,1.82
2019-03-29T04:26:27.059Z,1.79
2019-03-29T04:29:04.763Z,1.78
2019-03-29T04:31:34.423Z,1.76
2019-03-29T04:34:07.225Z,1.73
2019-03-29T04:36:40.149Z,1.73
2019-03-29T04:39:13.033Z,1.72
2019-03-29T04:41:45.922Z,1.73
2019-03-29T04:44:18.715Z,1.72
2019-03-29T04:46:51.621Z,1.71
2019-03-29T04:49:24.403Z,1.74
2019-03-29T04:51:57.275Z,1.81
2019-03-29T04:54:30.075Z,1.90
2019-03-29T04:57:02.836Z,1.99
2019-03-29T04:59:35.709Z,2.13
2019-03-29T05:02:08.507Z,2.28
2019-03-29T05:04:43.542Z,2.39
2019-03-29T05:07:16.429Z,2.55
2019-03-29T05:09:49.411Z,2.76
2019-03-29T05:12:22.281Z,3.03
2019-03-29T05:14:55.668Z,3.52
2019-03-29T05:17:28.539Z,4.33
2019-03-29T05:20:01.460Z,5.16
2019-03-29T05:22:34.354Z,6.06
2019-03-29T05:25:07.647Z,6.94
2019-03-29T05:27:40.799Z,7.75
2019-03-29T05:30:13.917Z,8.31
2019-03-29T05:32:46.702Z,8.44
2019-03-29T05:35:19.598Z,8.51
2019-03-29T05:37:52.490Z,8.73
2019-03-29T05:40:34.836Z,9.20
2019-03-29T05:42:59.881Z,9.24
2019-03-29T05:45:32.723Z,9.45
2019-03-29T05:48:05.677Z,9.43
2019-03-29T05:50:38.523Z,9.55
2019-03-29T05:53:11.509Z,9.85
2019-03-29T05:55:44.331Z,10.23
2019-03-29T05:58:17.209Z,10.72
2019-03-29T06:00:50.023Z,10.80
2019-03-29T06:03:24.107Z,11.14
2019-03-29T06:05:56.857Z,11.56
2019-03-29T06:08:31.155Z,11.79
2019-03-29T06:11:05.007Z,12.05
2019-03-29T06:13:37.939Z,12.21
2019-03-29T06:16:10.863Z,12.33
2019-03-29T06:18:44.037Z,12.27
2019-03-29T06:21:16.890Z,12.17
2019-03-29T06:23:49.709Z,12.11
2019-03-29T06:26:22.576Z,12.21
2019-03-29T06:28:55.451Z,12.32
2019-03-29T06:31:28.337Z,12.47
2019-03-29T06:34:01.264Z,12.58
2019-03-29T06:36:36.801Z,12.53
2019-03-29T06:39:11.359Z,12.31
2019-03-29T06:41:44.206Z,12.04
2019-03-29T06:44:17.074Z,11.82
2019-03-29T06:46:50.351Z,11.52
2019-03-29T06:49:23.368Z,11.24
2019-03-29T06:51:56.359Z,10.99
2019-03-29T06:54:29.199Z,10.86
2019-03-29T06:57:04.382Z,10.85
2019-03-29T06:59:37.692Z,11.01
2019-03-29T07:02:10.469Z,11.26
2019-03-29T07:04:43.348Z,11.55
2019-03-29T07:07:16.153Z,11.97
2019-03-29T07:09:49.025Z,12.50
2019-03-29T07:12:21.911Z,12.95
2019-03-29T07:14:54.764Z,13.37
2019-03-29T07:17:27.743Z,13.53
2019-03-29T07:20:02.681Z,13.39
2019-03-29T07:22:35.538Z,13.23
2019-03-29T07:25:09.463Z,13.21
2019-03-29T07:27:45.841Z,13.48
2019-03-29T07:30:17.513Z,14.19
2019-03-29T07:32:50.749Z,14.94
2019-03-29T07:35:23.862Z,15.58
2019-03-29T07:37:56.694Z,16.64
2019-03-29T07:40:29.693Z,19.08
2019-03-29T07:43:02.609Z,18.71
2019-03-29T07:45:35.545Z,18.17
2019-03-29T07:48:10.081Z,18.49
2019-03-29T07:50:42.925Z,19.54
2019-03-29T07:53:16.237Z,23.31
2019-03-29T07:55:51.910Z,28.22
2019-03-29T07:58:25.027Z,31.78
2019-03-29T08:01:00.688Z,30.90
2019-03-29T08:03:33.561Z,31.33
2019-03-29T08:06:06.409Z,34.43
2019-03-29T08:08:40.959Z,36.13
2019-03-29T08:11:25.528Z,38.40
2019-03-29T08:13:48.390Z,39.35
2019-03-29T08:16:21.834Z,40.78
2019-03-29T08:18:54.752Z,39.10
2019-03-29T08:21:27.545Z,38.25
2019-03-29T08:24:00.501Z,37.82
2019-03-29T08:26:33.423Z,38.90
2019-03-29T08:29:06.289Z,40.96
2019-03-29T08:31:39.186Z,40.63
2019-03-29T08:34:12.015Z,42.10
2019-03-29T08:36:44.906Z,46.66
2019-03-29T08:39:27.704Z,46.55
2019-03-29T08:41:59.905Z,49.26
2019-03-29T08:44:27.168Z,50.94
2019-03-29T08:47:00.218Z,52.30
2019-03-29T08:49:33.037Z,53.03
2019-03-29T08:52:05.862Z,53.53
2019-03-29T08:54:38.791Z,53.28
2019-03-29T08:57:13.099Z,52.95
2019-03-29T08:59:45.929Z,53.83
2019-03-29T09:02:18.918Z,53.31
2019-03-29T09:04:52.223Z,54.62
2019-03-29T09:07:27.946Z,52.54
2019-03-29T09:10:00.840Z,47.06
2019-03-29T09:12:33.751Z,41.32
2019-03-29T09:15:06.724Z,39.06
2019-03-29T09:17:40.793Z,36.26
2019-03-29T09:20:13.980Z,39.63
2019-03-29T09:22:46.872Z,41.51
2019-03-29T09:25:21.100Z,41.07
2019-03-29T09:27:54.213Z,38.89
2019-03-29T09:30:26.991Z,41.16
2019-03-29T09:32:59.943Z,37.97
2019-03-29T09:35:32.869Z,36.11
2019-03-29T09:38:06.820Z,40.63
2019-03-29T09:40:39.739Z,41.90
2019-03-29T09:43:12.611Z,39.76
2019-03-29T09:45:45.409Z,36.79
2019-03-29T09:48:18.220Z,39.70
2019-03-29T09:50:53.156Z,43.33
2019-03-29T09:53:26.083Z,41.28
2019-03-29T09:55:59.057Z,40.32
2019-03-29T09:58:31.972Z,37.04
2019-03-29T10:01:04.888Z,36.65
2019-03-29T10:03:37.756Z,40.65
2019-03-29T10:06:11.012Z,43.98
2019-03-29T10:08:43.866Z,42.60
2019-03-29T10:11:16.804Z,41.26
2019-03-29T10:13:49.697Z,43.85
2019-03-29T10:16:25.706Z,45.98
2019-03-29T10:18:57.053Z,44.19
2019-03-29T10:21:29.951Z,39.93
2019-03-29T10:24:02.868Z,36.20
2019-03-29T10:26:35.752Z,33.29
2019-03-29T10:29:09.105Z,31.12
2019-03-29T10:31:45.405Z,30.12
2019-03-29T10:34:18.455Z,33.23
2019-03-29T10:36:51.283Z,32.03
2019-03-29T10:39:26.301Z,30.12
2019-03-29T10:41:58.568Z,30.23
2019-03-29T10:44:31.396Z,30.92
2019-03-29T10:47:04.777Z,29.24
2019-03-29T10:49:37.619Z,27.92
2019-03-29T10:52:10.548Z,26.72
2019-03-29T10:54:43.407Z,26.07
2019-03-29T10:57:16.355Z,25.72
2019-03-29T10:59:49.268Z,25.48
2019-03-29T11:02:22.125Z,25.03
2019-03-29T11:04:55.073Z,24.91
2019-03-29T11:07:27.901Z,24.82
2019-03-29T11:10:01.271Z,24.28
2019-03-29T11:12:34.133Z,23.91
2019-03-29T11:15:07.677Z,23.64
2019-03-29T11:17:40.518Z,23.61
2019-03-29T11:20:13.354Z,27.51
2019-03-29T11:22:46.123Z,26.96
2019-03-29T11:25:20.519Z,26.55
2019-03-29T11:27:53.754Z,26.13
2019-03-29T11:30:41.219Z,25.50
2019-03-29T11:33:01.314Z,25.42
2019-03-29T11:35:36.141Z,26.61
2019-03-29T11:38:08.897Z,27.01
2019-03-29T11:40:42.597Z,27.74
2019-03-29T11:43:26.611Z,28.70
2019-03-29T11:45:51.767Z,31.40
2019-03-29T11:48:24.707Z,32.84
2019-03-29T11:50:57.556Z,31.27
2019-03-29T11:53:30.540Z,29.54
2019-03-29T11:56:03.490Z,28.45
2019-03-29T11:58:36.323Z,27.96
2019-03-29T12:01:10.714Z,27.63
2019-03-29T12:03:43.551Z,27.09
2019-03-29T12:06:16.831Z,26.38
2019-03-29T12:08:49.875Z,25.04
2019-03-29T12:11:22.892Z,23.81
2019-03-29T12:13:56.991Z,22.84
2019-03-29T12:16:29.881Z,22.15
2019-03-29T12:19:02.939Z,21.80
2019-03-29T12:21:35.868Z,21.39
2019-03-29T12:24:08.865Z,20.89
2019-03-29T12:26:41.749Z,20.56
2019-03-29T12:29:14.591Z,20.48
2019-03-29T12:31:48.043Z,20.50
2019-03-29T12:34:21.217Z,20.50
2019-03-29T12:36:55.112Z,20.37
2019-03-29T12:39:28.037Z,20.33
2019-03-29T12:42:01.513Z,20.25
2019-03-29T12:44:36.293Z,20.15
2019-03-29T12:47:09.141Z,20.50
2019-03-29T12:49:43.481Z,20.67
2019-03-29T12:52:17.053Z,20.29
2019-03-29T12:54:50.035Z,20.23
2019-03-29T12:57:23.042Z,20.58
2019-03-29T12:59:56.033Z,20.38
2019-03-29T13:02:34.487Z,20.15
2019-03-29T13:05:07.685Z,20.39
2019-03-29T13:07:40.496Z,20.66
2019-03-29T13:10:14.073Z,20.53
2019-03-29T13:12:47.056Z,20.19
2019-03-29T13:15:19.917Z,19.94
2019-03-29T13:17:53.015Z,20.06
2019-03-29T13:20:26.002Z,19.72
2019-03-29T13:22:58.909Z,19.24
2019-03-29T13:25:32.095Z,18.88
2019-03-29T13:28:06.085Z,18.37
2019-03-29T13:30:38.926Z,18.05
2019-03-29T13:33:12.105Z,17.56
2019-03-29T13:35:44.943Z,17.03
2019-03-29T13:38:20.447Z,16.69
2019-03-29T13:40:52.472Z,16.43
2019-03-29T13:43:25.771Z,16.27
2019-03-29T13:45:58.671Z,16.10
2019-03-29T13:48:31.831Z,15.91
2019-03-29T13:51:04.790Z,15.83
2019-03-29T13:53:37.717Z,15.85
2019-03-29T13:56:11.107Z,15.85
2019-03-29T13:58:43.879Z,15.92
2019-03-29T14:01:20.128Z,15.80
2019-03-29T14:03:53.161Z,15.76
2019-03-29T14:06:26.000Z,15.65
2019-03-29T14:08:58.914Z,15.56
2019-03-29T14:11:31.994Z,15.51
2019-03-29T14:14:04.910Z,15.48
2019-03-29T14:16:37.855Z,15.45
2019-03-29T14:19:13.127Z,15.42
2019-03-29T14:21:46.104Z,15.43
2019-03-29T14:24:19.001Z,15.45
2019-03-29T14:26:52.301Z,15.39
2019-03-29T14:29:25.175Z,15.30
2019-03-29T14:31:58.032Z,15.28
2019-03-29T14:34:31.042Z,15.20
2019-03-29T14:37:04.082Z,15.13
2019-03-29T14:39:39.648Z,15.08
2019-03-29T14:42:12.934Z,14.84
2019-03-29T14:44:52.251Z,14.69
2019-03-29T14:47:21.117Z,14.70
2019-03-29T14:49:53.940Z,14.70
2019-03-29T14:52:28.133Z,14.75
2019-03-29T14:55:01.080Z,14.73
2019-03-29T14:57:33.945Z,14.63
2019-03-29T15:00:08.226Z,14.62
2019-03-29T15:02:41.368Z,14.58
2019-03-29T15:05:14.579Z,14.53
2019-03-29T15:07:47.485Z,14.44
2019-03-29T15:10:29.074Z,14.39
2019-03-29T15:13:02.002Z,14.43
2019-03-29T15:15:34.782Z,14.50
2019-03-29T15:18:07.970Z,14.56
2019-03-29T15:20:52.603Z,14.58
2019-03-29T15:23:15.749Z,14.62
2019-03-29T15:25:48.536Z,14.69
2019-03-29T15:28:21.747Z,14.77
2019-03-29T15:30:54.585Z,14.83
2019-03-29T15:33:27.402Z,14.84
2019-03-29T15:36:00.215Z,14.86
2019-03-29T15:38:33.065Z,14.85
2019-03-29T15:41:05.828Z,14.78
2019-03-29T15:43:38.736Z,14.64
2019-03-29T15:46:11.566Z,14.48
2019-03-29T15:48:44.388Z,14.37
2019-03-29T15:51:17.259Z,14.24
2019-03-29T15:53:50.060Z,14.09
2019-03-29T15:56:22.897Z,13.93
2019-03-29T15:58:55.685Z,13.79
2019-03-29T16:01:28.482Z,13.66
2019-03-29T16:04:01.558Z,13.49
2019-03-29T16:06:34.454Z,13.36
2019-03-29T16:09:08.713Z,13.32
2019-03-29T16:11:41.497Z,13.20
2019-03-29T16:14:14.275Z,13.14
2019-03-29T16:16:47.073Z,13.03
2019-03-29T16:19:19.896Z,12.99
2019-03-29T16:21:52.655Z,12.95
2019-03-29T16:24:25.529Z,12.87
2019-03-29T16:26:58.336Z,12.84
2019-03-29T16:29:31.437Z,12.74
2019-03-29T16:32:04.252Z,12.63
2019-03-29T16:34:37.228Z,12.63
2019-03-29T16:37:10.075Z,12.53
2019-03-29T16:39:42.892Z,12.45
2019-03-29T16:42:15.689Z,12.34
2019-03-29T16:44:48.702Z,12.19
2019-03-29T16:47:21.513Z,12.08
2019-03-29T16:49:54.301Z,12.04
2019-03-29T16:52:27.083Z,11.91
2019-03-29T16:55:12.553Z,11.75
2019-03-29T16:57:34.421Z,11.69
2019-03-29T17:00:12.401Z,11.55
2019-03-29T17:02:44.825Z,11.43
2019-03-29T17:05:17.648Z,11.29
2019-03-29T17:07:50.548Z,11.21
2019-03-29T17:10:23.349Z,11.07
2019-03-29T17:12:56.134Z,10.94
2019-03-29T17:15:29.365Z,10.85
2019-03-29T17:18:02.172Z,10.76
2019-03-29T17:20:55.078Z,10.68
2019-03-29T17:24:16.550Z,10.60
2019-03-29T17:27:07.303Z,10.52
2019-03-29T17:30:15.623Z,10.45
2019-03-29T17:33:30.552Z,10.38
2019-03-29T17:36:00.370Z,10.32
2019-03-29T17:38:33.217Z,10.26
2019-03-29T17:41:06.039Z,10.22
2019-03-29T17:43:38.886Z,10.18
2019-03-29T17:46:16.510Z,10.13
2019-03-29T17:48:46.739Z,10.10
2019-03-29T17:51:19.602Z,10.09
2019-03-29T17:53:52.518Z,10.08
2019-03-29T17:56:25.369Z,10.04
2019-03-29T17:58:58.136Z,10.06
2019-03-29T18:01:31.208Z,10.04
2019-03-29T18:04:04.094Z,10.04
2019-03-29T18:06:36.942Z,10.04
2019-03-29T18:09:10.310Z,10.02
2019-03-29T18:11:43.127Z,9.98
2019-03-29T18:14:15.928Z,9.96
2019-03-29T18:16:48.814Z,9.94
2019-03-29T18:19:21.964Z,9.93
2019-03-29T18:21:54.779Z,9.90
2019-03-29T18:24:27.564Z,9.87
2019-03-29T18:27:01.177Z,9.85
2019-03-29T18:29:34.009Z,9.84
2019-03-29T18:32:06.806Z,9.80
2019-03-29T18:34:41.743Z,9.74
2019-03-29T18:37:16.101Z,9.69
2019-03-29T18:39:48.943Z,9.65
2019-03-29T18:42:21.781Z,9.63
2019-03-29T18:44:54.634Z,9.62
2019-03-29T18:47:27.657Z,9.59
2019-03-29T18:50:00.523Z,9.59
2019-03-29T18:52:33.454Z,9.56
2019-03-29T18:55:06.461Z,9.50
2019-03-29T18:57:39.320Z,9.48
2019-03-29T19:00:12.335Z,9.45
2019-03-29T19:02:45.160Z,9.40
2019-03-29T19:05:26.387Z,9.38
2019-03-29T19:07:59.244Z,9.32
2019-03-29T19:10:32.168Z,9.26
2019-03-29T19:13:05.077Z,9.22
2019-03-29T19:15:37.913Z,9.21
2019-03-29T19:18:10.699Z,9.26
2019-03-29T19:20:43.530Z,9.22
2019-03-29T19:23:16.328Z,9.18
2019-03-29T19:25:49.153Z,9.18
2019-03-29T19:28:22.085Z,9.15
2019-03-29T19:30:54.902Z,9.14
2019-03-29T19:33:27.730Z,9.12
2019-03-29T19:36:01.156Z,9.05
2019-03-29T19:38:34.330Z,9.02
2019-03-29T19:41:07.313Z,8.97
2019-03-29T19:43:40.172Z,8.93
2019-03-29T19:46:13.105Z,8.88
2019-03-29T19:48:45.967Z,8.82
2019-03-29T19:51:18.866Z,8.75
2019-03-29T19:53:51.696Z,8.69
2019-03-29T19:56:24.592Z,8.65
2019-03-29T19:58:57.408Z,8.59
2019-03-29T20:01:30.899Z,8.57
2019-03-29T20:04:03.753Z,8.52
2019-03-29T20:06:36.512Z,8.51
2019-03-29T20:09:11.090Z,8.48
2019-03-29T20:11:43.886Z,8.47
2019-03-29T20:14:16.662Z,8.47
2019-03-29T20:16:49.519Z,8.45
2019-03-29T20:19:22.373Z,8.43
2019-03-29T20:21:55.162Z,8.40
2019-03-29T20:24:27.994Z,8.35
2019-03-29T20:27:01.148Z,8.35
2019-03-29T20:29:33.955Z,8.30
2019-03-29T20:32:06.859Z,8.27
2019-03-29T20:34:39.771Z,8.25
2019-03-29T20:37:12.567Z,8.25
2019-03-29T20:39:45.455Z,8.21
2019-03-29T20:42:18.206Z,8.19
2019-03-29T20:44:51.117Z,8.18
2019-03-29T20:47:23.932Z,8.14
2019-03-29T20:49:56.727Z,8.13
2019-03-29T20:52:29.546Z,8.10
2019-03-29T20:55:02.342Z,8.05
2019-03-29T20:57:35.247Z,8.00
2019-03-29T21:00:10.771Z,7.97
2019-03-29T21:02:43.742Z,7.94
2019-03-29T21:05:16.570Z,7.89
2019-03-29T21:07:49.402Z,7.85
2019-03-29T21:10:22.172Z,7.79
2019-03-29T21:12:55.045Z,7.76
2019-03-29T21:15:27.931Z,7.71
2019-03-29T21:18:00.831Z,7.66
2019-03-29T21:20:33.730Z,7.60
2019-03-29T21:23:06.539Z,7.55
2019-03-29T21:25:39.303Z,7.50
2019-03-29T21:28:13.599Z,7.44
2019-03-29T21:30:46.519Z,7.36
2019-03-29T21:33:19.397Z,7.31
2019-03-29T21:35:52.419Z,7.27
2019-03-29T21:38:25.227Z,7.22
2019-03-29T21:40:58.071Z,7.19
2019-03-29T21:43:31.533Z,7.13
2019-03-29T21:46:04.433Z,7.09
2019-03-29T21:48:37.207Z,7.08
2019-03-29T21:51:10.056Z,7.07
2019-03-29T21:53:43.979Z,7.05
2019-03-29T21:56:16.977Z,6.98
2019-03-29T21:58:49.717Z,6.93
2019-03-29T22:01:22.485Z,6.87
2019-03-29T22:03:55.241Z,6.82
2019-03-29T22:06:28.121Z,6.80
2019-03-29T22:09:00.931Z,6.77
2019-03-29T22:11:33.672Z,6.71
2019-03-29T22:14:06.472Z,6.67
2019-03-29T22:16:39.308Z,6.63
2019-03-29T22:19:12.234Z,6.58
2019-03-29T22:21:45.090Z,6.54
2019-03-29T22:24:17.988Z,6.49
2019-03-29T22:26:51.266Z,6.45
2019-03-29T22:29:24.097Z,6.39
2019-03-29T22:31:56.913Z,6.36
2019-03-29T22:34:29.755Z,6.32
2019-03-29T22:37:02.637Z,6.28
2019-03-29T22:39:35.450Z,6.25
2019-03-29T22:42:08.248Z,6.23
2019-03-29T22:44:41.120Z,6.20
2019-03-29T22:47:13.946Z,6.15
2019-03-29T22:49:46.770Z,6.12
2019-03-29T22:52:19.531Z,6.09
2019-03-29T22:54:52.357Z,6.08
2019-03-29T22:57:25.103Z,6.06
2019-03-29T22:59:58.022Z,6.02
2019-03-29T23:02:31.175Z,6.00
2019-03-29T23:05:04.191Z,5.96
2019-03-29T23:07:36.959Z,5.94
2019-03-29T23:10:10.333Z,5.93
2019-03-29T23:12:43.256Z,5.90
2019-03-29T23:15:16.549Z,5.89
2019-03-29T23:17:49.388Z,5.86
2019-03-29T23:20:22.239Z,5.84
2019-03-29T23:22:55.084Z,5.80
2019-03-29T23:25:27.892Z,5.78
2019-03-29T23:28:00.994Z,5.75
2019-03-29T23:30:33.840Z,5.73
2019-03-29T23:33:06.653Z,5.70
2019-03-29T23:35:39.453Z,5.69
2019-03-29T23:38:12.222Z,5.63
2019-03-29T23:40:45.023Z,5.61
2019-03-29T23:43:17.872Z,5.58
2019-03-29T23:45:51.198Z,5.54
2019-03-29T23:48:23.968Z,5.52
2019-03-29T23:50:56.774Z,5.49
2019-03-29T23:53:29.534Z,5.46
2019-03-29T23:56:02.341Z,5.44
2019-03-29T23:58:35.239Z,5.41
